createdAt,value
2019-01-13T00:02:24.119Z,88.22
2019-01-13T00:07:28.490Z,89.00
2019-01-13T00:12:35.669Z,89.73
2019-01-13T00:17:38.997Z,89.40
2019-01-13T00:22:43.366Z,88.64
2019-01-13T00:27:47.745Z,88.24
2019-01-13T00:32:52.119Z,88.23
2019-01-13T00:37:56.502Z,88.82
2019-01-13T00:43:00.844Z,87.93
2019-01-13T00:48:05.555Z,86.69
2019-01-13T00:53:09.939Z,86.69
2019-01-13T00:58:14.254Z,87.41
2019-01-13T01:03:18.697Z,86.20
2019-01-13T01:08:23.374Z,85.93
2019-01-13T01:13:27.768Z,87.24
2019-01-13T01:18:32.101Z,87.18
2019-01-13T01:23:36.473Z,86.99
2019-01-13T01:28:40.817Z,87.07
2019-01-13T01:33:45.254Z,86.40
2019-01-13T01:38:49.699Z,87.09
2019-01-13T01:43:54.043Z,86.45
2019-01-13T01:48:59.479Z,87.22
2019-01-13T01:54:03.837Z,86.44
2019-01-13T01:59:08.167Z,87.52
2019-01-13T02:04:12.602Z,87.02
2019-01-13T02:09:16.972Z,87.16
2019-01-13T02:14:21.343Z,86.74
2019-01-13T02:19:25.675Z,85.96
2019-01-13T02:24:30.036Z,87.01
2019-01-13T02:29:34.365Z,85.42
2019-01-13T02:34:38.706Z,86.12
2019-01-13T02:39:43.080Z,85.91
2019-01-13T02:44:47.406Z,86.24
2019-01-13T02:49:51.823Z,86.63
2019-01-13T02:54:56.206Z,86.51
2019-01-13T03:00:00.570Z,86.61
2019-01-13T03:05:07.667Z,86.17
2019-01-13T03:10:17.844Z,88.05
2019-01-13T03:15:23.504Z,87.87
2019-01-13T03:20:27.858Z,87.50
2019-01-13T03:25:32.243Z,88.12
2019-01-13T03:30:36.617Z,87.99
2019-01-13T03:35:40.985Z,86.58
2019-01-13T03:40:45.412Z,87.70
2019-01-13T03:45:49.812Z,87.02
2019-01-13T03:50:54.214Z,86.88
2019-01-13T03:55:58.557Z,87.72
2019-01-13T04:01:03.038Z,87.79
2019-01-13T04:06:07.405Z,87.59
2019-01-13T04:11:11.758Z,87.66
2019-01-13T04:16:16.123Z,87.05
2019-01-13T04:21:20.459Z,86.30
2019-01-13T04:26:24.830Z,86.21
2019-01-13T04:31:29.187Z,86.09
2019-01-13T04:36:33.531Z,87.41
2019-01-13T04:41:37.888Z,87.15
2019-01-13T04:46:42.230Z,85.81
2019-01-13T04:51:46.604Z,86.60
2019-01-13T04:56:50.974Z,87.76
2019-01-13T05:01:55.310Z,86.92
2019-01-13T05:06:59.745Z,87.23
2019-01-13T05:12:04.170Z,87.75
2019-01-13T05:17:08.634Z,87.93
2019-01-13T05:22:13.027Z,88.85
2019-01-13T05:27:17.401Z,87.41
2019-01-13T05:32:21.720Z,86.10
2019-01-13T05:37:26.075Z,86.39
2019-01-13T05:42:30.441Z,86.65
2019-01-13T05:47:34.872Z,85.60
2019-01-13T05:52:39.894Z,87.74
2019-01-13T05:57:44.396Z,89.45
2019-01-13T06:02:48.730Z,90.03
2019-01-13T06:07:53.078Z,90.20
2019-01-13T06:12:58.041Z,88.40
2019-01-13T06:18:02.411Z,87.92
2019-01-13T06:23:06.941Z,88.70
2019-01-13T06:28:11.286Z,88.65
2019-01-13T06:33:15.630Z,88.13
2019-01-13T06:38:19.971Z,88.93
2019-01-13T06:43:24.313Z,89.29
2019-01-13T06:48:28.667Z,90.38
2019-01-13T06:53:33.006Z,90.16
2019-01-13T06:58:37.492Z,90.16
2019-01-13T07:03:41.830Z,89.11
2019-01-13T07:08:46.166Z,88.31
2019-01-13T07:13:50.528Z,87.82
2019-01-13T07:18:54.876Z,87.71
2019-01-13T07:23:59.244Z,87.95
2019-01-13T07:29:03.601Z,86.38
2019-01-13T07:34:07.973Z,86.60
2019-01-13T07:39:12.297Z,86.46
2019-01-13T07:44:17.588Z,85.75
2019-01-13T07:49:22.089Z,85.01
2019-01-13T07:54:26.448Z,85.14
2019-01-13T07:59:30.781Z,84.29
2019-01-13T08:04:35.214Z,85.73
2019-01-13T08:09:39.583Z,85.79
2019-01-13T08:14:43.930Z,86.14
2019-01-13T08:19:48.298Z,85.70
2019-01-13T08:24:52.694Z,84.57
2019-01-13T08:29:57.053Z,83.68
2019-01-13T08:35:01.423Z,84.46
2019-01-13T08:40:09.000Z,82.87
2019-01-13T08:45:13.677Z,83.09
2019-01-13T08:50:21.600Z,82.01
2019-01-13T08:55:26.291Z,81.32
2019-01-13T09:00:31.396Z,81.32
2019-01-13T09:05:35.851Z,81.53
2019-01-13T09:10:40.262Z,81.23
2019-01-13T09:15:44.711Z,81.23
2019-01-13T09:20:49.077Z,80.41
2019-01-13T09:25:53.450Z,82.22
2019-01-13T09:30:57.804Z,83.19
2019-01-13T09:36:02.181Z,81.02
2019-01-13T09:41:06.679Z,81.65
2019-01-13T09:46:11.117Z,81.00
2019-01-13T09:51:15.462Z,81.61
2019-01-13T09:56:20.950Z,80.62
2019-01-13T10:01:25.376Z,80.82
2019-01-13T10:06:29.691Z,80.93
2019-01-13T10:11:34.046Z,80.21
2019-01-13T10:16:38.394Z,82.00
2019-01-13T10:21:42.882Z,81.63
2019-01-13T10:26:47.378Z,81.43
2019-01-13T10:31:51.795Z,80.83
2019-01-13T10:36:56.151Z,80.00
2019-01-13T10:42:00.514Z,81.37
2019-01-13T10:47:04.915Z,81.68
2019-01-13T10:52:09.394Z,80.80
2019-01-13T10:57:13.837Z,82.94
2019-01-13T11:02:18.233Z,83.51
2019-01-13T11:07:22.575Z,83.37
2019-01-13T11:12:26.983Z,83.66
2019-01-13T11:17:31.330Z,83.85
2019-01-13T11:22:35.836Z,82.55
2019-01-13T11:27:40.193Z,83.37
2019-01-13T11:32:44.642Z,83.71
2019-01-13T11:37:49.212Z,84.02
2019-01-13T11:42:53.551Z,84.09
2019-01-13T11:47:57.926Z,83.12
2019-01-13T11:53:02.294Z,83.48
2019-01-13T11:58:06.696Z,83.84
2019-01-13T12:03:16.713Z,84.13
2019-01-13T12:08:17.520Z,82.84
2019-01-13T12:13:21.897Z,82.84
2019-01-13T12:18:26.231Z,85.09
2019-01-13T12:23:30.570Z,85.56
2019-01-13T12:28:34.954Z,86.01
2019-01-13T12:33:39.362Z,86.71
2019-01-13T12:38:43.774Z,85.96
2019-01-13T12:43:49.224Z,88.01
2019-01-13T12:48:53.756Z,87.72
2019-01-13T12:53:58.268Z,86.02
2019-01-13T12:59:02.636Z,87.33
2019-01-13T13:04:07.043Z,87.61
2019-01-13T13:09:11.389Z,86.99
2019-01-13T13:14:16.745Z,87.78
2019-01-13T13:19:21.109Z,86.36
2019-01-13T13:24:25.450Z,85.03
2019-01-13T13:29:29.824Z,85.31
2019-01-13T13:34:34.164Z,86.97
2019-01-13T13:39:38.616Z,86.48
2019-01-13T13:44:43.054Z,86.28
2019-01-13T13:49:47.445Z,87.14
2019-01-13T13:54:52.602Z,86.64
2019-01-13T13:59:57.840Z,86.75
2019-01-13T14:05:02.272Z,86.24
2019-01-13T14:10:27.810Z,84.73
2019-01-13T14:15:32.178Z,85.04
2019-01-13T14:20:36.478Z,84.58
2019-01-13T14:25:40.852Z,84.93
2019-01-13T14:30:45.292Z,84.41
2019-01-13T14:35:49.693Z,84.75
2019-01-13T14:40:54.046Z,85.37
2019-01-13T14:45:58.416Z,84.59
2019-01-13T14:51:02.822Z,84.19
2019-01-13T14:56:07.161Z,85.11
2019-01-13T15:01:11.495Z,85.09
2019-01-13T15:06:15.890Z,85.81
2019-01-13T15:11:20.207Z,86.49
2019-01-13T15:16:24.553Z,86.65
2019-01-13T15:21:28.936Z,87.84
2019-01-13T15:26:33.543Z,89.42
2019-01-13T15:31:37.925Z,89.28
2019-01-13T15:36:42.309Z,89.52
2019-01-13T15:41:46.899Z,90.75
2019-01-13T15:46:51.266Z,89.42
2019-01-13T15:51:55.669Z,90.67
2019-01-13T15:57:00.005Z,90.95
2019-01-13T16:02:04.345Z,91.82
2019-01-13T16:07:08.689Z,91.84
2019-01-13T16:12:13.047Z,91.65
2019-01-13T16:17:17.427Z,91.32
2019-01-13T16:22:21.855Z,90.56
2019-01-13T16:27:26.259Z,90.86
2019-01-13T16:32:30.659Z,91.62
2019-01-13T16:37:35.070Z,90.45
2019-01-13T16:42:39.459Z,90.27
2019-01-13T16:47:43.802Z,90.57
2019-01-13T16:52:50.781Z,90.78
2019-01-13T16:57:55.193Z,91.85
2019-01-13T17:02:59.746Z,92.14
2019-01-13T17:08:04.575Z,90.30
2019-01-13T17:13:08.960Z,90.64
2019-01-13T17:18:13.405Z,91.21
2019-01-13T17:23:17.772Z,90.43
2019-01-13T17:28:22.177Z,92.01
2019-01-13T17:33:26.795Z,93.63
2019-01-13T17:38:31.582Z,95.26
2019-01-13T17:43:36.848Z,94.32
2019-01-13T17:48:42.703Z,95.27
2019-01-13T17:53:47.727Z,94.75
2019-01-13T17:58:53.749Z,95.20
2019-01-13T18:03:58.225Z,93.76
2019-01-13T18:09:04.237Z,93.67
2019-01-13T18:14:08.980Z,94.09
2019-01-13T18:19:13.428Z,95.74
2019-01-13T18:24:17.783Z,94.23
2019-01-13T18:29:22.202Z,93.37
2019-01-13T18:34:26.617Z,93.02
2019-01-13T18:39:30.988Z,94.28
2019-01-13T18:44:35.373Z,93.65
2019-01-13T18:49:39.767Z,94.13
2019-01-13T18:54:44.108Z,93.45
2019-01-13T18:59:48.436Z,93.33
2019-01-13T19:04:57.262Z,92.08
2019-01-13T19:09:58.949Z,91.95
2019-01-13T19:15:05.123Z,92.28
2019-01-13T19:20:12.232Z,92.05
2019-01-13T19:25:18.004Z,91.42
2019-01-13T19:30:22.390Z,91.77
2019-01-13T19:35:26.822Z,91.02
2019-01-13T19:40:31.342Z,90.52
2019-01-13T19:45:35.769Z,89.73
2019-01-13T19:50:40.199Z,89.66
2019-01-13T19:55:44.610Z,90.60
2019-01-13T20:00:49.139Z,90.80
2019-01-13T20:05:53.795Z,91.31
2019-01-13T20:10:58.201Z,90.57
2019-01-13T20:16:02.662Z,86.22
2019-01-13T20:21:07.073Z,83.52
2019-01-13T20:26:11.448Z,82.98
2019-01-13T20:31:15.806Z,82.58
2019-01-13T20:36:20.283Z,80.89
2019-01-13T20:41:24.792Z,81.30
2019-01-13T20:46:29.195Z,82.39
2019-01-13T20:51:33.556Z,82.72
2019-01-13T20:56:37.966Z,81.66
2019-01-13T21:01:42.316Z,80.89
2019-01-13T21:06:46.768Z,80.17
2019-01-13T21:11:51.626Z,79.78
2019-01-13T21:16:56.016Z,80.77
2019-01-13T21:22:00.429Z,79.05
2019-01-13T21:27:04.953Z,81.21
2019-01-13T21:32:09.311Z,81.02
2019-01-13T21:37:13.681Z,82.33
2019-01-13T21:42:18.193Z,83.73
2019-01-13T21:47:22.584Z,82.97
2019-01-13T21:52:26.912Z,83.45
2019-01-13T21:57:31.316Z,83.00
2019-01-13T22:02:36.788Z,83.29
2019-01-13T22:07:42.886Z,82.53
2019-01-13T22:12:47.252Z,83.82
2019-01-13T22:17:51.861Z,84.09
2019-01-13T22:22:56.212Z,85.15
2019-01-13T22:28:00.590Z,84.64
2019-01-13T22:33:05.083Z,84.18
2019-01-13T22:38:10.429Z,83.96
2019-01-13T22:43:15.072Z,83.21
2019-01-13T22:48:19.517Z,81.38
2019-01-13T22:53:23.930Z,79.92
2019-01-13T22:58:28.295Z,79.16
2019-01-13T23:03:32.667Z,79.36
2019-01-13T23:08:37.064Z,79.84
2019-01-13T23:13:42.218Z,80.61
2019-01-13T23:18:46.584Z,80.07
2019-01-13T23:23:50.919Z,79.38
2019-01-13T23:28:55.333Z,79.53
2019-01-13T23:33:59.722Z,79.55
2019-01-13T23:39:07.513Z,80.19
2019-01-13T23:44:11.974Z,80.21
2019-01-13T23:49:16.461Z,81.32
2019-01-13T23:54:20.848Z,82.73
2019-01-13T23:59:25.144Z,83.40
